sensor_id;sensor_type;location;lat;lon;timestamp;P1;durP1;ratioP1;P2;durP2;ratioP2
29712;SDS011;16623;53.632;10.016;2024-03-06T00:01:34;14.13;;;7.57;;
29712;SDS011;16623;53.632;10.016;2024-03-06T00:03:59;19.60;;;9.32;;
29712;SDS011;16623;53.632;10.016;2024-03-06T00:06:26;15.05;;;8.25;;
29712;SDS011;16623;53.632;10.016;2024-03-06T00:08:52;17.77;;;9.13;;
29712;SDS011;16623;53.632;10.016;2024-03-06T00:11:18;20.92;;;10.40;;
29712;SDS011;16623;53.632;10.016;2024-03-06T00:13:43;21.27;;;9.45;;
29712;SDS011;16623;53.632;10.016;2024-03-06T00:16:09;17.05;;;9.80;;
29712;SDS011;16623;53.632;10.016;2024-03-06T00:18:35;19.17;;;9.95;;
29712;SDS011;16623;53.632;10.016;2024-03-06T00:21:00;21.75;;;9.45;;
29712;SDS011;16623;53.632;10.016;2024-03-06T00:23:26;20.63;;;9.90;;
29712;SDS011;16623;53.632;10.016;2024-03-06T00:25:52;19.02;;;9.88;;
29712;SDS011;16623;53.632;10.016;2024-03-06T00:28:17;18.40;;;9.45;;
29712;SDS011;16623;53.632;10.016;2024-03-06T00:30:43;16.33;;;8.38;;
29712;SDS011;16623;53.632;10.016;2024-03-06T00:33:08;15.90;;;9.32;;
29712;SDS011;16623;53.632;10.016;2024-03-06T00:35:34;18.15;;;8.10;;
29712;SDS011;16623;53.632;10.016;2024-03-06T00:37:59;20.48;;;10.52;;
29712;SDS011;16623;53.632;10.016;2024-03-06T00:40:28;17.92;;;9.88;;
29712;SDS011;16623;53.632;10.016;2024-03-06T00:42:57;20.67;;;9.90;;
29712;SDS011;16623;53.632;10.016;2024-03-06T00:45:23;17.38;;;9.05;;
29712;SDS011;16623;53.632;10.016;2024-03-06T00:47:49;17.05;;;8.45;;
29712;SDS011;16623;53.632;10.016;2024-03-06T00:50:15;18.35;;;9.90;;
29712;SDS011;16623;53.632;10.016;2024-03-06T00:52:42;17.80;;;9.27;;
29712;SDS011;16623;53.632;10.016;2024-03-06T00:55:08;18.27;;;9.00;;
29712;SDS011;16623;53.632;10.016;2024-03-06T00:57:34;10.88;;;6.85;;
29712;SDS011;16623;53.632;10.016;2024-03-06T01:00:00;19.90;;;9.43;;
29712;SDS011;16623;53.632;10.016;2024-03-06T01:02:30;14.40;;;9.15;;
29712;SDS011;16623;53.632;10.016;2024-03-06T01:04:56;17.33;;;9.00;;
29712;SDS011;16623;53.632;10.016;2024-03-06T01:07:22;13.73;;;8.15;;
29712;SDS011;16623;53.632;10.016;2024-03-06T01:09:47;18.98;;;10.02;;
29712;SDS011;16623;53.632;10.016;2024-03-06T01:12:13;17.05;;;9.43;;
29712;SDS011;16623;53.632;10.016;2024-03-06T01:14:38;17.40;;;9.88;;
29712;SDS011;16623;53.632;10.016;2024-03-06T01:17:04;14.38;;;8.75;;
29712;SDS011;16623;53.632;10.016;2024-03-06T01:19:30;21.35;;;9.93;;
29712;SDS011;16623;53.632;10.016;2024-03-06T01:21:55;18.02;;;9.05;;
29712;SDS011;16623;53.632;10.016;2024-03-06T01:24:21;18.10;;;9.65;;
29712;SDS011;16623;53.632;10.016;2024-03-06T01:26:46;13.25;;;7.60;;
29712;SDS011;16623;53.632;10.016;2024-03-06T01:29:12;14.18;;;8.30;;
29712;SDS011;16623;53.632;10.016;2024-03-06T01:31:37;18.10;;;8.48;;
29712;SDS011;16623;53.632;10.016;2024-03-06T01:34:03;21.00;;;8.95;;
29712;SDS011;16623;53.632;10.016;2024-03-06T01:36:28;15.43;;;8.55;;
29712;SDS011;16623;53.632;10.016;2024-03-06T01:38:54;21.48;;;9.32;;
29712;SDS011;16623;53.632;10.016;2024-03-06T01:41:20;18.20;;;9.32;;
29712;SDS011;16623;53.632;10.016;2024-03-06T01:43:45;15.20;;;7.65;;
29712;SDS011;16623;53.632;10.016;2024-03-06T01:46:12;14.43;;;8.15;;
29712;SDS011;16623;53.632;10.016;2024-03-06T01:48:37;13.48;;;7.85;;
29712;SDS011;16623;53.632;10.016;2024-03-06T01:51:03;12.45;;;7.60;;
29712;SDS011;16623;53.632;10.016;2024-03-06T01:53:30;27.50;;;9.43;;
29712;SDS011;16623;53.632;10.016;2024-03-06T01:55:58;13.50;;;7.75;;
29712;SDS011;16623;53.632;10.016;2024-03-06T01:58:24;16.15;;;8.52;;
29712;SDS011;16623;53.632;10.016;2024-03-06T02:00:51;17.20;;;8.02;;
29712;SDS011;16623;53.632;10.016;2024-03-06T02:03:18;15.23;;;9.25;;
29712;SDS011;16623;53.632;10.016;2024-03-06T02:05:48;14.38;;;8.00;;
29712;SDS011;16623;53.632;10.016;2024-03-06T02:08:14;20.95;;;7.53;;
29712;SDS011;16623;53.632;10.016;2024-03-06T02:10:40;17.20;;;8.85;;
29712;SDS011;16623;53.632;10.016;2024-03-06T02:13:06;18.10;;;8.32;;
29712;SDS011;16623;53.632;10.016;2024-03-06T02:15:32;17.83;;;7.57;;
29712;SDS011;16623;53.632;10.016;2024-03-06T02:17:57;19.25;;;8.02;;
29712;SDS011;16623;53.632;10.016;2024-03-06T02:20:24;12.25;;;7.40;;
29712;SDS011;16623;53.632;10.016;2024-03-06T02:22:50;12.90;;;7.70;;
29712;SDS011;16623;53.632;10.016;2024-03-06T02:25:16;13.30;;;7.47;;
29712;SDS011;16623;53.632;10.016;2024-03-06T02:27:42;14.02;;;8.25;;
29712;SDS011;16623;53.632;10.016;2024-03-06T02:30:08;13.98;;;7.70;;
29712;SDS011;16623;53.632;10.016;2024-03-06T02:32:34;13.38;;;6.40;;
29712;SDS011;16623;53.632;10.016;2024-03-06T02:35:03;18.35;;;7.38;;
29712;SDS011;16623;53.632;10.016;2024-03-06T02:37:33;14.75;;;6.93;;
29712;SDS011;16623;53.632;10.016;2024-03-06T02:39:59;14.98;;;7.18;;
29712;SDS011;16623;53.632;10.016;2024-03-06T02:42:24;14.68;;;7.32;;
29712;SDS011;16623;53.632;10.016;2024-03-06T02:44:52;10.48;;;7.00;;
29712;SDS011;16623;53.632;10.016;2024-03-06T02:47:19;14.45;;;7.20;;
29712;SDS011;16623;53.632;10.016;2024-03-06T02:49:44;13.80;;;7.70;;
29712;SDS011;16623;53.632;10.016;2024-03-06T02:52:10;14.23;;;6.93;;
29712;SDS011;16623;53.632;10.016;2024-03-06T02:54:35;12.25;;;6.68;;
29712;SDS011;16623;53.632;10.016;2024-03-06T02:57:01;11.35;;;7.25;;
29712;SDS011;16623;53.632;10.016;2024-03-06T02:59:27;13.27;;;6.90;;
29712;SDS011;16623;53.632;10.016;2024-03-06T03:01:52;10.85;;;5.95;;
29712;SDS011;16623;53.632;10.016;2024-03-06T03:04:18;9.70;;;5.95;;
29712;SDS011;16623;53.632;10.016;2024-03-06T03:06:44;12.48;;;6.65;;
29712;SDS011;16623;53.632;10.016;2024-03-06T03:09:09;13.88;;;6.60;;
29712;SDS011;16623;53.632;10.016;2024-03-06T03:11:37;14.38;;;6.70;;
29712;SDS011;16623;53.632;10.016;2024-03-06T03:14:03;11.10;;;4.60;;
29712;SDS011;16623;53.632;10.016;2024-03-06T03:16:28;9.73;;;6.38;;
29712;SDS011;16623;53.632;10.016;2024-03-06T03:18:54;12.52;;;6.07;;
29712;SDS011;16623;53.632;10.016;2024-03-06T03:21:20;21.23;;;7.70;;
29712;SDS011;16623;53.632;10.016;2024-03-06T03:23:46;12.32;;;6.85;;
29712;SDS011;16623;53.632;10.016;2024-03-06T03:26:12;8.38;;;5.82;;
29712;SDS011;16623;53.632;10.016;2024-03-06T03:28:38;11.18;;;5.82;;
29712;SDS011;16623;53.632;10.016;2024-03-06T03:31:05;14.73;;;6.32;;
29712;SDS011;16623;53.632;10.016;2024-03-06T03:33:31;13.98;;;6.18;;
29712;SDS011;16623;53.632;10.016;2024-03-06T03:35:57;9.20;;;5.75;;
29712;SDS011;16623;53.632;10.016;2024-03-06T03:38:22;10.57;;;5.72;;
29712;SDS011;16623;53.632;10.016;2024-03-06T03:40:48;12.20;;;6.45;;
29712;SDS011;16623;53.632;10.016;2024-03-06T03:43:13;13.43;;;5.90;;
29712;SDS011;16623;53.632;10.016;2024-03-06T03:45:39;9.35;;;5.43;;
29712;SDS011;16623;53.632;10.016;2024-03-06T03:48:05;12.60;;;6.97;;
29712;SDS011;16623;53.632;10.016;2024-03-06T03:50:31;10.25;;;6.18;;
29712;SDS011;16623;53.632;10.016;2024-03-06T03:52:58;11.57;;;5.68;;
29712;SDS011;16623;53.632;10.016;2024-03-06T03:55:25;7.82;;;5.10;;
29712;SDS011;16623;53.632;10.016;2024-03-06T03:57:51;12.60;;;6.50;;
29712;SDS011;16623;53.632;10.016;2024-03-06T04:00:17;13.93;;;6.85;;
29712;SDS011;16623;53.632;10.016;2024-03-06T04:02:43;9.95;;;5.90;;
29712;SDS011;16623;53.632;10.016;2024-03-06T04:05:09;12.90;;;6.35;;
29712;SDS011;16623;53.632;10.016;2024-03-06T04:07:35;10.50;;;5.90;;
29712;SDS011;16623;53.632;10.016;2024-03-06T04:10:02;8.35;;;5.63;;
29712;SDS011;16623;53.632;10.016;2024-03-06T04:12:28;10.95;;;5.80;;
29712;SDS011;16623;53.632;10.016;2024-03-06T04:14:53;13.05;;;6.18;;
29712;SDS011;16623;53.632;10.016;2024-03-06T04:17:19;11.25;;;6.55;;
29712;SDS011;16623;53.632;10.016;2024-03-06T04:19:44;10.18;;;6.10;;
29712;SDS011;16623;53.632;10.016;2024-03-06T04:22:10;7.47;;;5.10;;
29712;SDS011;16623;53.632;10.016;2024-03-06T04:24:35;10.85;;;6.07;;
29712;SDS011;16623;53.632;10.016;2024-03-06T04:27:01;11.35;;;5.53;;
29712;SDS011;16623;53.632;10.016;2024-03-06T04:29:26;10.23;;;6.75;;
29712;SDS011;16623;53.632;10.016;2024-03-06T04:31:52;13.60;;;6.60;;
29712;SDS011;16623;53.632;10.016;2024-03-06T04:34:18;9.68;;;6.35;;
29712;SDS011;16623;53.632;10.016;2024-03-06T04:36:44;12.63;;;6.80;;
29712;SDS011;16623;53.632;10.016;2024-03-06T04:39:10;9.30;;;4.47;;
29712;SDS011;16623;53.632;10.016;2024-03-06T04:41:37;13.40;;;6.10;;
29712;SDS011;16623;53.632;10.016;2024-03-06T04:44:02;10.07;;;5.90;;
29712;SDS011;16623;53.632;10.016;2024-03-06T04:46:28;12.27;;;5.97;;
29712;SDS011;16623;53.632;10.016;2024-03-06T04:48:53;10.60;;;6.65;;
29712;SDS011;16623;53.632;10.016;2024-03-06T04:51:19;18.25;;;6.15;;
29712;SDS011;16623;53.632;10.016;2024-03-06T04:53:45;13.02;;;6.40;;
29712;SDS011;16623;53.632;10.016;2024-03-06T04:56:11;10.23;;;6.57;;
29712;SDS011;16623;53.632;10.016;2024-03-06T04:58:37;11.25;;;5.97;;
29712;SDS011;16623;53.632;10.016;2024-03-06T05:01:03;9.57;;;6.18;;
29712;SDS011;16623;53.632;10.016;2024-03-06T05:03:29;10.55;;;5.43;;
29712;SDS011;16623;53.632;10.016;2024-03-06T05:05:58;9.75;;;5.97;;
29712;SDS011;16623;53.632;10.016;2024-03-06T05:08:23;12.77;;;6.72;;
29712;SDS011;16623;53.632;10.016;2024-03-06T05:10:49;9.27;;;6.07;;
29712;SDS011;16623;53.632;10.016;2024-03-06T05:13:15;10.05;;;6.05;;
29712;SDS011;16623;53.632;10.016;2024-03-06T05:15:40;8.43;;;5.53;;
29712;SDS011;16623;53.632;10.016;2024-03-06T05:18:06;13.18;;;6.15;;
29712;SDS011;16623;53.632;10.016;2024-03-06T05:20:33;9.07;;;5.93;;
29712;SDS011;16623;53.632;10.016;2024-03-06T05:22:58;11.68;;;6.80;;
29712;SDS011;16623;53.632;10.016;2024-03-06T05:25:24;11.55;;;6.60;;
29712;SDS011;16623;53.632;10.016;2024-03-06T05:27:49;11.52;;;6.45;;
29712;SDS011;16623;53.632;10.016;2024-03-06T05:30:15;11.60;;;6.20;;
29712;SDS011;16623;53.632;10.016;2024-03-06T05:32:41;9.45;;;5.75;;
29712;SDS011;16623;53.632;10.016;2024-03-06T05:35:07;10.20;;;6.22;;
29712;SDS011;16623;53.632;10.016;2024-03-06T05:37:35;10.85;;;6.45;;
29712;SDS011;16623;53.632;10.016;2024-03-06T05:40:01;12.75;;;6.22;;
29712;SDS011;16623;53.632;10.016;2024-03-06T05:42:29;14.18;;;7.20;;
29712;SDS011;16623;53.632;10.016;2024-03-06T05:44:56;11.90;;;6.20;;
29712;SDS011;16623;53.632;10.016;2024-03-06T05:47:25;15.65;;;6.35;;
29712;SDS011;16623;53.632;10.016;2024-03-06T05:49:51;14.00;;;6.90;;
29712;SDS011;16623;53.632;10.016;2024-03-06T05:52:17;16.67;;;7.20;;
29712;SDS011;16623;53.632;10.016;2024-03-06T05:54:43;9.68;;;6.85;;
29712;SDS011;16623;53.632;10.016;2024-03-06T05:57:08;13.65;;;6.20;;
29712;SDS011;16623;53.632;10.016;2024-03-06T05:59:34;11.38;;;6.75;;
29712;SDS011;16623;53.632;10.016;2024-03-06T06:02:00;10.13;;;6.63;;
29712;SDS011;16623;53.632;10.016;2024-03-06T06:04:25;12.90;;;6.85;;
29712;SDS011;16623;53.632;10.016;2024-03-06T06:06:51;19.08;;;6.47;;
29712;SDS011;16623;53.632;10.016;2024-03-06T06:09:17;12.75;;;6.50;;
29712;SDS011;16623;53.632;10.016;2024-03-06T06:11:43;13.63;;;6.97;;
29712;SDS011;16623;53.632;10.016;2024-03-06T06:14:09;10.57;;;6.22;;
29712;SDS011;16623;53.632;10.016;2024-03-06T06:16:36;13.02;;;7.97;;
29712;SDS011;16623;53.632;10.016;2024-03-06T06:19:05;10.88;;;6.57;;
29712;SDS011;16623;53.632;10.016;2024-03-06T06:21:32;10.10;;;6.50;;
29712;SDS011;16623;53.632;10.016;2024-03-06T06:23:58;14.48;;;6.78;;
29712;SDS011;16623;53.632;10.016;2024-03-06T06:26:25;12.13;;;7.80;;
29712;SDS011;16623;53.632;10.016;2024-03-06T06:28:50;13.27;;;7.03;;
29712;SDS011;16623;53.632;10.016;2024-03-06T06:31:16;12.18;;;6.22;;
29712;SDS011;16623;53.632;10.016;2024-03-06T06:33:41;11.32;;;7.07;;
29712;SDS011;16623;53.632;10.016;2024-03-06T06:36:07;11.05;;;7.07;;
29712;SDS011;16623;53.632;10.016;2024-03-06T06:38:32;12.60;;;7.25;;
29712;SDS011;16623;53.632;10.016;2024-03-06T06:40:58;9.90;;;6.95;;
29712;SDS011;16623;53.632;10.016;2024-03-06T06:43:23;12.63;;;7.32;;
29712;SDS011;16623;53.632;10.016;2024-03-06T06:45:49;14.93;;;7.30;;
29712;SDS011;16623;53.632;10.016;2024-03-06T06:48:15;12.38;;;7.57;;
29712;SDS011;16623;53.632;10.016;2024-03-06T06:50:41;13.20;;;7.75;;
29712;SDS011;16623;53.632;10.016;2024-03-06T06:53:06;12.80;;;7.30;;
29712;SDS011;16623;53.632;10.016;2024-03-06T06:55:32;13.63;;;8.32;;
29712;SDS011;16623;53.632;10.016;2024-03-06T06:57:58;14.75;;;7.57;;
29712;SDS011;16623;53.632;10.016;2024-03-06T07:00:23;11.98;;;7.50;;
29712;SDS011;16623;53.632;10.016;2024-03-06T07:02:50;13.38;;;6.68;;
29712;SDS011;16623;53.632;10.016;2024-03-06T07:05:16;13.75;;;8.13;;
29712;SDS011;16623;53.632;10.016;2024-03-06T07:07:41;12.90;;;8.00;;
29712;SDS011;16623;53.632;10.016;2024-03-06T07:10:07;12.88;;;7.45;;
29712;SDS011;16623;53.632;10.016;2024-03-06T07:12:33;19.30;;;7.93;;
29712;SDS011;16623;53.632;10.016;2024-03-06T07:15:00;11.73;;;7.30;;
29712;SDS011;16623;53.632;10.016;2024-03-06T07:17:25;14.48;;;7.30;;
29712;SDS011;16623;53.632;10.016;2024-03-06T07:19:51;11.65;;;7.30;;
29712;SDS011;16623;53.632;10.016;2024-03-06T07:22:17;12.82;;;7.65;;
29712;SDS011;16623;53.632;10.016;2024-03-06T07:24:43;11.13;;;6.85;;
29712;SDS011;16623;53.632;10.016;2024-03-06T07:27:09;13.60;;;7.55;;
29712;SDS011;16623;53.632;10.016;2024-03-06T07:29:35;12.13;;;7.82;;
29712;SDS011;16623;53.632;10.016;2024-03-06T07:32:01;11.40;;;7.05;;
29712;SDS011;16623;53.632;10.016;2024-03-06T07:34:27;15.40;;;7.20;;
29712;SDS011;16623;53.632;10.016;2024-03-06T07:36:53;13.23;;;7.35;;
29712;SDS011;16623;53.632;10.016;2024-03-06T07:39:19;9.65;;;6.50;;
29712;SDS011;16623;53.632;10.016;2024-03-06T07:41:45;10.65;;;7.15;;
29712;SDS011;16623;53.632;10.016;2024-03-06T07:44:11;14.55;;;6.75;;
29712;SDS011;16623;53.632;10.016;2024-03-06T07:46:36;13.98;;;7.30;;
29712;SDS011;16623;53.632;10.016;2024-03-06T07:49:02;10.60;;;6.80;;
29712;SDS011;16623;53.632;10.016;2024-03-06T07:51:34;11.25;;;6.43;;
29712;SDS011;16623;53.632;10.016;2024-03-06T07:54:05;11.85;;;6.55;;
29712;SDS011;16623;53.632;10.016;2024-03-06T07:56:31;12.35;;;6.95;;
29712;SDS011;16623;53.632;10.016;2024-03-06T07:58:57;9.93;;;6.07;;
29712;SDS011;16623;53.632;10.016;2024-03-06T08:01:22;9.45;;;6.00;;
29712;SDS011;16623;53.632;10.016;2024-03-06T08:03:48;13.55;;;5.38;;
29712;SDS011;16623;53.632;10.016;2024-03-06T08:06:14;9.50;;;5.68;;
29712;SDS011;16623;53.632;10.016;2024-03-06T08:08:41;9.35;;;5.32;;
29712;SDS011;16623;53.632;10.016;2024-03-06T08:11:09;10.05;;;6.40;;
29712;SDS011;16623;53.632;10.016;2024-03-06T08:13:36;12.43;;;6.20;;
29712;SDS011;16623;53.632;10.016;2024-03-06T08:16:02;10.38;;;5.07;;
29712;SDS011;16623;53.632;10.016;2024-03-06T08:18:29;9.63;;;5.72;;
29712;SDS011;16623;53.632;10.016;2024-03-06T08:20:54;11.50;;;4.97;;
29712;SDS011;16623;53.632;10.016;2024-03-06T08:23:20;7.97;;;5.25;;
29712;SDS011;16623;53.632;10.016;2024-03-06T08:25:45;8.88;;;5.70;;
29712;SDS011;16623;53.632;10.016;2024-03-06T08:28:11;7.70;;;5.05;;
29712;SDS011;16623;53.632;10.016;2024-03-06T08:30:37;11.90;;;5.85;;
29712;SDS011;16623;53.632;10.016;2024-03-06T08:33:02;8.25;;;5.15;;
29712;SDS011;16623;53.632;10.016;2024-03-06T08:35:29;10.25;;;5.40;;
29712;SDS011;16623;53.632;10.016;2024-03-06T08:37:55;10.18;;;5.65;;
29712;SDS011;16623;53.632;10.016;2024-03-06T08:40:21;8.02;;;4.38;;
29712;SDS011;16623;53.632;10.016;2024-03-06T08:42:48;7.97;;;4.72;;
29712;SDS011;16623;53.632;10.016;2024-03-06T08:45:13;11.95;;;5.47;;
29712;SDS011;16623;53.632;10.016;2024-03-06T08:47:43;8.60;;;4.88;;
29712;SDS011;16623;53.632;10.016;2024-03-06T08:50:09;17.95;;;5.47;;
29712;SDS011;16623;53.632;10.016;2024-03-06T08:52:36;8.88;;;5.18;;
29712;SDS011;16623;53.632;10.016;2024-03-06T08:55:02;7.35;;;5.03;;
29712;SDS011;16623;53.632;10.016;2024-03-06T08:57:31;8.57;;;6.63;;
29712;SDS011;16623;53.632;10.016;2024-03-06T08:59:58;7.03;;;4.75;;
29712;SDS011;16623;53.632;10.016;2024-03-06T09:02:24;7.07;;;4.72;;
29712;SDS011;16623;53.632;10.016;2024-03-06T09:04:50;7.10;;;4.47;;
29712;SDS011;16623;53.632;10.016;2024-03-06T09:07:19;8.50;;;4.80;;
29712;SDS011;16623;53.632;10.016;2024-03-06T09:09:48;8.35;;;5.15;;
29712;SDS011;16623;53.632;10.016;2024-03-06T09:12:15;9.00;;;5.85;;
29712;SDS011;16623;53.632;10.016;2024-03-06T09:14:41;8.20;;;5.13;;
29712;SDS011;16623;53.632;10.016;2024-03-06T09:17:07;10.82;;;5.55;;
29712;SDS011;16623;53.632;10.016;2024-03-06T09:19:35;8.05;;;4.80;;
29712;SDS011;16623;53.632;10.016;2024-03-06T09:22:01;10.32;;;5.07;;
29712;SDS011;16623;53.632;10.016;2024-03-06T09:24:27;10.40;;;5.47;;
29712;SDS011;16623;53.632;10.016;2024-03-06T09:26:53;7.00;;;4.22;;
29712;SDS011;16623;53.632;10.016;2024-03-06T09:29:18;8.65;;;5.72;;
29712;SDS011;16623;53.632;10.016;2024-03-06T09:31:45;8.40;;;5.18;;
29712;SDS011;16623;53.632;10.016;2024-03-06T09:34:12;9.23;;;5.35;;
29712;SDS011;16623;53.632;10.016;2024-03-06T09:36:39;9.00;;;5.47;;
29712;SDS011;16623;53.632;10.016;2024-03-06T09:39:05;12.50;;;5.40;;
29712;SDS011;16623;53.632;10.016;2024-03-06T09:41:33;11.70;;;6.10;;
29712;SDS011;16623;53.632;10.016;2024-03-06T09:43:59;10.68;;;5.70;;
29712;SDS011;16623;53.632;10.016;2024-03-06T09:46:25;8.32;;;4.63;;
29712;SDS011;16623;53.632;10.016;2024-03-06T09:48:52;15.07;;;5.93;;
29712;SDS011;16623;53.632;10.016;2024-03-06T09:51:18;9.10;;;5.50;;
29712;SDS011;16623;53.632;10.016;2024-03-06T09:53:45;9.18;;;5.18;;
29712;SDS011;16623;53.632;10.016;2024-03-06T09:56:14;7.40;;;5.05;;
29712;SDS011;16623;53.632;10.016;2024-03-06T09:58:40;11.45;;;5.95;;
29712;SDS011;16623;53.632;10.016;2024-03-06T10:01:06;9.45;;;6.18;;
29712;SDS011;16623;53.632;10.016;2024-03-06T10:03:33;12.50;;;6.22;;
29712;SDS011;16623;53.632;10.016;2024-03-06T10:05:59;7.97;;;5.53;;
29712;SDS011;16623;53.632;10.016;2024-03-06T10:08:25;8.02;;;5.57;;
29712;SDS011;16623;53.632;10.016;2024-03-06T10:10:52;12.77;;;5.40;;
29712;SDS011;16623;53.632;10.016;2024-03-06T10:13:22;11.30;;;6.72;;
29712;SDS011;16623;53.632;10.016;2024-03-06T10:16:02;8.40;;;5.25;;
29712;SDS011;16623;53.632;10.016;2024-03-06T10:18:29;10.45;;;6.03;;
29712;SDS011;16623;53.632;10.016;2024-03-06T10:20:56;10.57;;;5.93;;
29712;SDS011;16623;53.632;10.016;2024-03-06T10:23:22;11.48;;;5.68;;
29712;SDS011;16623;53.632;10.016;2024-03-06T10:25:48;11.10;;;6.25;;
29712;SDS011;16623;53.632;10.016;2024-03-06T10:28:18;16.15;;;5.57;;
29712;SDS011;16623;53.632;10.016;2024-03-06T10:30:45;13.55;;;6.40;;
29712;SDS011;16623;53.632;10.016;2024-03-06T10:33:15;8.80;;;5.47;;
29712;SDS011;16623;53.632;10.016;2024-03-06T10:35:44;11.15;;;6.07;;
29712;SDS011;16623;53.632;10.016;2024-03-06T10:38:11;12.15;;;6.90;;
29712;SDS011;16623;53.632;10.016;2024-03-06T10:40:38;12.65;;;6.45;;
29712;SDS011;16623;53.632;10.016;2024-03-06T10:43:08;10.65;;;5.25;;
29712;SDS011;16623;53.632;10.016;2024-03-06T10:45:50;12.00;;;6.28;;
29712;SDS011;16623;53.632;10.016;2024-03-06T10:48:21;11.40;;;6.40;;
29712;SDS011;16623;53.632;10.016;2024-03-06T10:50:47;12.15;;;6.07;;
29712;SDS011;16623;53.632;10.016;2024-03-06T10:53:15;14.27;;;6.72;;
29712;SDS011;16623;53.632;10.016;2024-03-06T10:55:45;10.52;;;6.28;;
29712;SDS011;16623;53.632;10.016;2024-03-06T10:58:11;11.52;;;6.75;;
29712;SDS011;16623;53.632;10.016;2024-03-06T11:00:41;10.60;;;5.63;;
29712;SDS011;16623;53.632;10.016;2024-03-06T11:03:11;9.20;;;6.32;;
29712;SDS011;16623;53.632;10.016;2024-03-06T11:05:40;12.23;;;6.55;;
29712;SDS011;16623;53.632;10.016;2024-03-06T11:08:10;11.48;;;6.82;;
29712;SDS011;16623;53.632;10.016;2024-03-06T11:10:38;12.32;;;6.15;;
29712;SDS011;16623;53.632;10.016;2024-03-06T11:13:23;12.23;;;6.72;;
29712;SDS011;16623;53.632;10.016;2024-03-06T11:15:51;11.80;;;6.88;;
29712;SDS011;16623;53.632;10.016;2024-03-06T11:18:52;12.10;;;7.13;;
29712;SDS011;16623;53.632;10.016;2024-03-06T11:24:11;11.25;;;7.03;;
29712;SDS011;16623;53.632;10.016;2024-03-06T11:27:03;11.90;;;7.13;;
29712;SDS011;16623;53.632;10.016;2024-03-06T11:32:36;14.25;;;7.18;;
29712;SDS011;16623;53.632;10.016;2024-03-06T11:35:03;11.07;;;7.28;;
29712;SDS011;16623;53.632;10.016;2024-03-06T11:37:33;12.43;;;7.38;;
29712;SDS011;16623;53.632;10.016;2024-03-06T11:39:59;9.45;;;6.80;;
29712;SDS011;16623;53.632;10.016;2024-03-06T11:42:36;10.20;;;6.88;;
29712;SDS011;16623;53.632;10.016;2024-03-06T11:45:11;11.57;;;6.07;;
29712;SDS011;16623;53.632;10.016;2024-03-06T11:48:03;9.52;;;6.43;;
29712;SDS011;16623;53.632;10.016;2024-03-06T11:50:28;11.98;;;7.30;;
29712;SDS011;16623;53.632;10.016;2024-03-06T11:52:57;14.57;;;7.22;;
29712;SDS011;16623;53.632;10.016;2024-03-06T11:55:23;14.70;;;7.32;;
29712;SDS011;16623;53.632;10.016;2024-03-06T11:57:52;12.35;;;6.85;;
29712;SDS011;16623;53.632;10.016;2024-03-06T12:00:23;10.35;;;6.93;;
29712;SDS011;16623;53.632;10.016;2024-03-06T12:02:49;12.30;;;6.85;;
29712;SDS011;16623;53.632;10.016;2024-03-06T12:05:16;13.73;;;6.45;;
29712;SDS011;16623;53.632;10.016;2024-03-06T12:08:00;10.90;;;6.28;;
29712;SDS011;16623;53.632;10.016;2024-03-06T12:10:28;10.60;;;6.45;;
29712;SDS011;16623;53.632;10.016;2024-03-06T12:12:53;13.75;;;6.65;;
29712;SDS011;16623;53.632;10.016;2024-03-06T12:15:19;12.50;;;7.78;;
29712;SDS011;16623;53.632;10.016;2024-03-06T12:17:47;12.05;;;5.95;;
29712;SDS011;16623;53.632;10.016;2024-03-06T12:20:15;8.82;;;5.47;;
29712;SDS011;16623;53.632;10.016;2024-03-06T12:22:48;7.40;;;4.75;;
29712;SDS011;16623;53.632;10.016;2024-03-06T12:25:18;9.02;;;5.80;;
29712;SDS011;16623;53.632;10.016;2024-03-06T12:27:47;11.80;;;6.30;;
29712;SDS011;16623;53.632;10.016;2024-03-06T12:30:17;7.90;;;4.32;;
29712;SDS011;16623;53.632;10.016;2024-03-06T12:32:56;5.07;;;3.15;;
29712;SDS011;16623;53.632;10.016;2024-03-06T12:35:29;8.07;;;5.53;;
29712;SDS011;16623;53.632;10.016;2024-03-06T12:37:54;9.10;;;5.95;;
29712;SDS011;16623;53.632;10.016;2024-03-06T12:40:20;11.30;;;5.57;;
29712;SDS011;16623;53.632;10.016;2024-03-06T12:42:46;9.40;;;5.20;;
29712;SDS011;16623;53.632;10.016;2024-03-06T12:45:12;8.65;;;6.00;;
29712;SDS011;16623;53.632;10.016;2024-03-06T12:47:41;10.02;;;5.63;;
29712;SDS011;16623;53.632;10.016;2024-03-06T12:50:08;5.85;;;3.67;;
29712;SDS011;16623;53.632;10.016;2024-03-06T12:52:34;8.38;;;5.22;;
29712;SDS011;16623;53.632;10.016;2024-03-06T12:55:00;9.27;;;6.25;;
29712;SDS011;16623;53.632;10.016;2024-03-06T12:57:26;11.15;;;5.45;;
29712;SDS011;16623;53.632;10.016;2024-03-06T12:59:52;9.02;;;6.10;;
29712;SDS011;16623;53.632;10.016;2024-03-06T13:02:18;5.60;;;4.13;;
29712;SDS011;16623;53.632;10.016;2024-03-06T13:04:44;9.80;;;6.28;;
29712;SDS011;16623;53.632;10.016;2024-03-06T13:07:10;9.90;;;6.25;;
29712;SDS011;16623;53.632;10.016;2024-03-06T13:09:36;16.33;;;7.30;;
29712;SDS011;16623;53.632;10.016;2024-03-06T13:12:05;12.23;;;6.82;;
29712;SDS011;16623;53.632;10.016;2024-03-06T13:14:31;10.70;;;6.72;;
29712;SDS011;16623;53.632;10.016;2024-03-06T13:16:57;7.80;;;4.93;;
29712;SDS011;16623;53.632;10.016;2024-03-06T13:19:23;15.98;;;6.43;;
29712;SDS011;16623;53.632;10.016;2024-03-06T13:21:48;9.15;;;6.32;;
29712;SDS011;16623;53.632;10.016;2024-03-06T13:24:14;10.57;;;6.25;;
29712;SDS011;16623;53.632;10.016;2024-03-06T13:26:40;10.43;;;6.22;;
29712;SDS011;16623;53.632;10.016;2024-03-06T13:29:05;9.60;;;6.00;;
29712;SDS011;16623;53.632;10.016;2024-03-06T13:31:34;8.52;;;5.88;;
29712;SDS011;16623;53.632;10.016;2024-03-06T13:34:00;12.60;;;6.78;;
29712;SDS011;16623;53.632;10.016;2024-03-06T13:36:26;11.35;;;6.25;;
29712;SDS011;16623;53.632;10.016;2024-03-06T13:38:52;10.05;;;6.28;;
29712;SDS011;16623;53.632;10.016;2024-03-06T13:41:17;11.10;;;6.90;;
29712;SDS011;16623;53.632;10.016;2024-03-06T13:43:43;13.90;;;7.43;;
29712;SDS011;16623;53.632;10.016;2024-03-06T13:46:08;12.80;;;7.05;;
29712;SDS011;16623;53.632;10.016;2024-03-06T13:48:34;9.68;;;6.30;;
29712;SDS011;16623;53.632;10.016;2024-03-06T13:51:01;8.63;;;5.05;;
29712;SDS011;16623;53.632;10.016;2024-03-06T13:53:27;8.60;;;5.80;;
29712;SDS011;16623;53.632;10.016;2024-03-06T13:55:52;14.43;;;5.57;;
29712;SDS011;16623;53.632;10.016;2024-03-06T13:58:18;10.13;;;5.47;;
29712;SDS011;16623;53.632;10.016;2024-03-06T14:00:44;9.55;;;6.60;;
29712;SDS011;16623;53.632;10.016;2024-03-06T14:03:09;10.43;;;6.25;;
29712;SDS011;16623;53.632;10.016;2024-03-06T14:05:36;8.48;;;5.72;;
29712;SDS011;16623;53.632;10.016;2024-03-06T14:08:02;9.40;;;5.22;;
29712;SDS011;16623;53.632;10.016;2024-03-06T14:10:29;8.63;;;5.75;;
29712;SDS011;16623;53.632;10.016;2024-03-06T14:12:58;9.57;;;6.30;;
29712;SDS011;16623;53.632;10.016;2024-03-06T14:15:24;10.63;;;6.10;;
29712;SDS011;16623;53.632;10.016;2024-03-06T14:17:51;8.13;;;4.82;;
29712;SDS011;16623;53.632;10.016;2024-03-06T14:20:19;8.73;;;5.82;;
29712;SDS011;16623;53.632;10.016;2024-03-06T14:22:45;10.55;;;4.72;;
29712;SDS011;16623;53.632;10.016;2024-03-06T14:25:10;15.02;;;6.18;;
29712;SDS011;16623;53.632;10.016;2024-03-06T14:27:36;4.68;;;3.33;;
29712;SDS011;16623;53.632;10.016;2024-03-06T14:30:03;10.10;;;6.22;;